sensor_id;sensor_type;location;lat;lon;timestamp;temperature;humidity
38325;DHT22;24126;52.672;13.622;2023-05-07T00:01:34;13.20;78.00
38325;DHT22;24126;52.672;13.622;2023-05-07T00:04:01;13.20;77.80
38325;DHT22;24126;52.672;13.622;2023-05-07T00:06:29;13.20;78.00
38325;DHT22;24126;52.672;13.622;2023-05-07T00:08:56;13.20;77.70
38325;DHT22;24126;52.672;13.622;2023-05-07T00:11:23;13.20;78.00
38325;DHT22;24126;52.672;13.622;2023-05-07T00:13:51;13.20;78.10
38325;DHT22;24126;52.672;13.622;2023-05-07T00:16:18;13.20;78.10
38325;DHT22;24126;52.672;13.622;2023-05-07T00:18:45;13.20;78.00
38325;DHT22;24126;52.672;13.622;2023-05-07T00:21:12;13.20;77.80
38325;DHT22;24126;52.672;13.622;2023-05-07T00:23:40;13.20;77.80
38325;DHT22;24126;52.672;13.622;2023-05-07T00:26:07;13.30;77.80
38325;DHT22;24126;52.672;13.622;2023-05-07T00:28:34;13.30;77.60
38325;DHT22;24126;52.672;13.622;2023-05-07T00:31:01;13.30;77.50
38325;DHT22;24126;52.672;13.622;2023-05-07T00:33:28;13.30;77.40
38325;DHT22;24126;52.672;13.622;2023-05-07T00:35:55;13.30;77.50
38325;DHT22;24126;52.672;13.622;2023-05-07T00:38:22;13.20;77.40
38325;DHT22;24126;52.672;13.622;2023-05-07T00:40:49;13.20;77.50
38325;DHT22;24126;52.672;13.622;2023-05-07T00:43:17;13.20;77.70
38325;DHT22;24126;52.672;13.622;2023-05-07T00:45:44;13.20;77.70
38325;DHT22;24126;52.672;13.622;2023-05-07T00:48:11;13.20;77.70
38325;DHT22;24126;52.672;13.622;2023-05-07T00:50:39;13.20;77.60
38325;DHT22;24126;52.672;13.622;2023-05-07T00:53:06;13.20;77.60
38325;DHT22;24126;52.672;13.622;2023-05-07T00:55:33;13.20;77.60
38325;DHT22;24126;52.672;13.622;2023-05-07T00:58:02;13.20;77.50
38325;DHT22;24126;52.672;13.622;2023-05-07T01:00:29;13.10;77.60
38325;DHT22;24126;52.672;13.622;2023-05-07T01:02:56;13.10;77.40
38325;DHT22;24126;52.672;13.622;2023-05-07T01:05:24;13.00;78.00
38325;DHT22;24126;52.672;13.622;2023-05-07T01:07:52;13.00;78.00
38325;DHT22;24126;52.672;13.622;2023-05-07T01:10:20;13.10;77.70
38325;DHT22;24126;52.672;13.622;2023-05-07T01:12:47;13.10;77.70
38325;DHT22;24126;52.672;13.622;2023-05-07T01:15:15;13.20;77.70
38325;DHT22;24126;52.672;13.622;2023-05-07T01:17:42;13.20;77.50
38325;DHT22;24126;52.672;13.622;2023-05-07T01:20:17;13.20;77.20
38325;DHT22;24126;52.672;13.622;2023-05-07T01:22:45;13.20;77.20
38325;DHT22;24126;52.672;13.622;2023-05-07T01:25:13;13.10;77.30
38325;DHT22;24126;52.672;13.622;2023-05-07T01:27:45;13.10;77.20
38325;DHT22;24126;52.672;13.622;2023-05-07T01:30:12;13.00;77.70
38325;DHT22;24126;52.672;13.622;2023-05-07T01:32:43;13.00;77.60
38325;DHT22;24126;52.672;13.622;2023-05-07T01:35:15;12.90;77.80
38325;DHT22;24126;52.672;13.622;2023-05-07T01:37:44;13.00;77.70
38325;DHT22;24126;52.672;13.622;2023-05-07T01:40:11;12.90;77.70
38325;DHT22;24126;52.672;13.622;2023-05-07T01:42:38;12.90;77.90
38325;DHT22;24126;52.672;13.622;2023-05-07T01:45:06;12.90;77.70
38325;DHT22;24126;52.672;13.622;2023-05-07T01:47:33;12.90;77.70
38325;DHT22;24126;52.672;13.622;2023-05-07T01:50:01;12.90;77.70
38325;DHT22;24126;52.672;13.622;2023-05-07T01:52:28;12.90;77.50
38325;DHT22;24126;52.672;13.622;2023-05-07T01:54:55;12.90;77.50
38325;DHT22;24126;52.672;13.622;2023-05-07T01:57:22;13.00;77.10
38325;DHT22;24126;52.672;13.622;2023-05-07T01:59:49;12.90;77.30
38325;DHT22;24126;52.672;13.622;2023-05-07T02:02:17;12.90;77.00
38325;DHT22;24126;52.672;13.622;2023-05-07T02:04:44;12.90;77.10
38325;DHT22;24126;52.672;13.622;2023-05-07T02:07:13;12.90;77.00
38325;DHT22;24126;52.672;13.622;2023-05-07T02:09:40;12.90;77.30
38325;DHT22;24126;52.672;13.622;2023-05-07T02:12:07;12.80;77.10
38325;DHT22;24126;52.672;13.622;2023-05-07T02:14:34;12.90;76.80
38325;DHT22;24126;52.672;13.622;2023-05-07T02:17:01;12.90;76.70
38325;DHT22;24126;52.672;13.622;2023-05-07T02:19:28;12.90;76.70
38325;DHT22;24126;52.672;13.622;2023-05-07T02:21:56;12.90;76.70
38325;DHT22;24126;52.672;13.622;2023-05-07T02:24:23;12.90;76.50
38325;DHT22;24126;52.672;13.622;2023-05-07T02:26:50;12.90;76.50
38325;DHT22;24126;52.672;13.622;2023-05-07T02:29:17;12.80;76.60
38325;DHT22;24126;52.672;13.622;2023-05-07T02:31:45;12.80;76.60
38325;DHT22;24126;52.672;13.622;2023-05-07T02:34:13;12.80;76.40
38325;DHT22;24126;52.672;13.622;2023-05-07T02:36:40;12.80;76.70
38325;DHT22;24126;52.672;13.622;2023-05-07T02:39:11;12.80;76.80
38325;DHT22;24126;52.672;13.622;2023-05-07T02:41:39;12.80;76.50
38325;DHT22;24126;52.672;13.622;2023-05-07T02:44:06;12.80;76.40
38325;DHT22;24126;52.672;13.622;2023-05-07T02:46:33;12.80;76.50
38325;DHT22;24126;52.672;13.622;2023-05-07T02:49:05;12.80;76.50
38325;DHT22;24126;52.672;13.622;2023-05-07T02:51:33;12.80;76.20
38325;DHT22;24126;52.672;13.622;2023-05-07T02:54:02;12.80;76.50
38325;DHT22;24126;52.672;13.622;2023-05-07T02:56:31;12.80;76.30
38325;DHT22;24126;52.672;13.622;2023-05-07T02:58:58;12.70;76.40
38325;DHT22;24126;52.672;13.622;2023-05-07T03:01:29;12.70;76.50
38325;DHT22;24126;52.672;13.622;2023-05-07T03:04:04;12.70;76.70
38325;DHT22;24126;52.672;13.622;2023-05-07T03:06:31;12.80;76.60
38325;DHT22;24126;52.672;13.622;2023-05-07T03:08:58;12.70;76.50
38325;DHT22;24126;52.672;13.622;2023-05-07T03:11:25;12.80;76.50
38325;DHT22;24126;52.672;13.622;2023-05-07T03:13:52;12.80;76.30
38325;DHT22;24126;52.672;13.622;2023-05-07T03:16:20;12.80;76.40
38325;DHT22;24126;52.672;13.622;2023-05-07T03:18:47;12.80;76.40
38325;DHT22;24126;52.672;13.622;2023-05-07T03:21:14;12.80;76.90
38325;DHT22;24126;52.672;13.622;2023-05-07T03:23:41;12.80;76.20
38325;DHT22;24126;52.672;13.622;2023-05-07T03:26:08;12.70;76.10
38325;DHT22;24126;52.672;13.622;2023-05-07T03:28:36;12.70;76.20
38325;DHT22;24126;52.672;13.622;2023-05-07T03:31:06;12.80;76.10
38325;DHT22;24126;52.672;13.622;2023-05-07T03:33:33;12.80;76.10
38325;DHT22;24126;52.672;13.622;2023-05-07T03:36:01;12.70;76.20
38325;DHT22;24126;52.672;13.622;2023-05-07T03:38:28;12.70;76.10
38325;DHT22;24126;52.672;13.622;2023-05-07T03:40:55;12.80;76.20
38325;DHT22;24126;52.672;13.622;2023-05-07T03:43:22;12.80;76.20
38325;DHT22;24126;52.672;13.622;2023-05-07T03:45:58;12.90;76.00
38325;DHT22;24126;52.672;13.622;2023-05-07T03:48:27;12.90;75.90
38325;DHT22;24126;52.672;13.622;2023-05-07T03:50:56;12.90;76.00
38325;DHT22;24126;52.672;13.622;2023-05-07T03:53:25;12.80;75.80
38325;DHT22;24126;52.672;13.622;2023-05-07T03:55:52;12.80;76.00
38325;DHT22;24126;52.672;13.622;2023-05-07T03:58:20;12.80;76.10
38325;DHT22;24126;52.672;13.622;2023-05-07T04:00:47;12.80;76.00
38325;DHT22;24126;52.672;13.622;2023-05-07T04:03:22;12.80;76.20
38325;DHT22;24126;52.672;13.622;2023-05-07T04:05:49;12.80;76.20
38325;DHT22;24126;52.672;13.622;2023-05-07T04:08:16;12.70;76.00
38325;DHT22;24126;52.672;13.622;2023-05-07T04:10:54;12.70;76.30
38325;DHT22;24126;52.672;13.622;2023-05-07T04:13:21;12.70;76.50
38325;DHT22;24126;52.672;13.622;2023-05-07T04:15:48;12.70;76.50
38325;DHT22;24126;52.672;13.622;2023-05-07T04:18:17;12.70;76.70
38325;DHT22;24126;52.672;13.622;2023-05-07T04:20:49;12.70;76.30
38325;DHT22;24126;52.672;13.622;2023-05-07T04:23:16;12.80;76.20
38325;DHT22;24126;52.672;13.622;2023-05-07T04:25:44;12.70;76.20
38325;DHT22;24126;52.672;13.622;2023-05-07T04:28:22;12.80;75.90
38325;DHT22;24126;52.672;13.622;2023-05-07T04:30:49;12.80;75.90
38325;DHT22;24126;52.672;13.622;2023-05-07T04:33:17;12.80;75.90
38325;DHT22;24126;52.672;13.622;2023-05-07T04:35:47;12.80;75.90
38325;DHT22;24126;52.672;13.622;2023-05-07T04:38:14;12.70;75.90
38325;DHT22;24126;52.672;13.622;2023-05-07T04:40:42;12.80;76.20
38325;DHT22;24126;52.672;13.622;2023-05-07T04:43:12;12.70;76.00
38325;DHT22;24126;52.672;13.622;2023-05-07T04:45:45;12.80;76.00
38325;DHT22;24126;52.672;13.622;2023-05-07T04:48:12;12.80;75.70
38325;DHT22;24126;52.672;13.622;2023-05-07T04:50:40;12.80;76.00
38325;DHT22;24126;52.672;13.622;2023-05-07T04:53:08;12.80;76.00
38325;DHT22;24126;52.672;13.622;2023-05-07T04:55:35;12.90;75.80
38325;DHT22;24126;52.672;13.622;2023-05-07T04:58:03;12.90;75.60
38325;DHT22;24126;52.672;13.622;2023-05-07T05:00:32;12.90;75.60
38325;DHT22;24126;52.672;13.622;2023-05-07T05:03:01;12.80;75.40
38325;DHT22;24126;52.672;13.622;2023-05-07T05:05:28;12.80;75.80
38325;DHT22;24126;52.672;13.622;2023-05-07T05:07:57;12.80;75.60
38325;DHT22;24126;52.672;13.622;2023-05-07T05:10:25;12.90;75.60
38325;DHT22;24126;52.672;13.622;2023-05-07T05:12:52;13.00;75.60
38325;DHT22;24126;52.672;13.622;2023-05-07T05:15:20;13.10;75.00
38325;DHT22;24126;52.672;13.622;2023-05-07T05:17:48;13.40;75.00
38325;DHT22;24126;52.672;13.622;2023-05-07T05:20:15;13.70;74.10
38325;DHT22;24126;52.672;13.622;2023-05-07T05:22:42;14.20;72.60
38325;DHT22;24126;52.672;13.622;2023-05-07T05:25:10;14.50;71.80
38325;DHT22;24126;52.672;13.622;2023-05-07T05:27:37;14.80;70.80
38325;DHT22;24126;52.672;13.622;2023-05-07T05:30:05;15.10;70.10
38325;DHT22;24126;52.672;13.622;2023-05-07T05:32:33;15.30;69.40
38325;DHT22;24126;52.672;13.622;2023-05-07T05:35:00;15.40;69.00
38325;DHT22;24126;52.672;13.622;2023-05-07T05:37:28;15.60;68.70
38325;DHT22;24126;52.672;13.622;2023-05-07T05:39:58;15.70;67.80
38325;DHT22;24126;52.672;13.622;2023-05-07T05:42:26;15.90;67.50
38325;DHT22;24126;52.672;13.622;2023-05-07T05:44:54;15.90;67.10
38325;DHT22;24126;52.672;13.622;2023-05-07T05:47:22;15.90;66.90
38325;DHT22;24126;52.672;13.622;2023-05-07T05:49:49;15.90;66.80
38325;DHT22;24126;52.672;13.622;2023-05-07T05:52:17;15.90;66.50
38325;DHT22;24126;52.672;13.622;2023-05-07T05:54:44;15.90;66.80
38325;DHT22;24126;52.672;13.622;2023-05-07T05:57:11;15.90;67.10
38325;DHT22;24126;52.672;13.622;2023-05-07T05:59:38;15.90;67.20
38325;DHT22;24126;52.672;13.622;2023-05-07T06:02:06;16.10;66.70
38325;DHT22;24126;52.672;13.622;2023-05-07T06:04:33;16.20;66.50
38325;DHT22;24126;52.672;13.622;2023-05-07T06:07:01;16.20;65.90
38325;DHT22;24126;52.672;13.622;2023-05-07T06:09:28;16.30;65.90
38325;DHT22;24126;52.672;13.622;2023-05-07T06:11:56;16.40;65.10
38325;DHT22;24126;52.672;13.622;2023-05-07T06:14:23;16.50;65.30
38325;DHT22;24126;52.672;13.622;2023-05-07T06:16:50;16.50;64.90
38325;DHT22;24126;52.672;13.622;2023-05-07T06:19:17;16.50;64.80
38325;DHT22;24126;52.672;13.622;2023-05-07T06:21:49;16.50;64.90
38325;DHT22;24126;52.672;13.622;2023-05-07T06:24:16;16.60;65.30
38325;DHT22;24126;52.672;13.622;2023-05-07T06:26:43;16.80;65.20
38325;DHT22;24126;52.672;13.622;2023-05-07T06:29:10;17.10;64.00
38325;DHT22;24126;52.672;13.622;2023-05-07T06:31:40;17.20;63.40
38325;DHT22;24126;52.672;13.622;2023-05-07T06:34:08;17.30;63.10
38325;DHT22;24126;52.672;13.622;2023-05-07T06:36:37;17.30;62.40
38325;DHT22;24126;52.672;13.622;2023-05-07T06:39:16;17.30;62.90
38325;DHT22;24126;52.672;13.622;2023-05-07T06:41:43;17.30;63.10
38325;DHT22;24126;52.672;13.622;2023-05-07T06:44:21;17.40;62.60
38325;DHT22;24126;52.672;13.622;2023-05-07T06:46:58;17.50;62.10
38325;DHT22;24126;52.672;13.622;2023-05-07T06:49:25;17.50;61.60
38325;DHT22;24126;52.672;13.622;2023-05-07T06:51:53;17.40;61.50
38325;DHT22;24126;52.672;13.622;2023-05-07T06:54:21;17.40;61.50
38325;DHT22;24126;52.672;13.622;2023-05-07T06:56:49;17.40;61.90
38325;DHT22;24126;52.672;13.622;2023-05-07T06:59:16;17.50;62.00
38325;DHT22;24126;52.672;13.622;2023-05-07T07:01:45;17.60;61.50
38325;DHT22;24126;52.672;13.622;2023-05-07T07:04:12;17.80;61.50
38325;DHT22;24126;52.672;13.622;2023-05-07T07:06:41;17.90;61.20
38325;DHT22;24126;52.672;13.622;2023-05-07T07:09:12;18.00;60.30
38325;DHT22;24126;52.672;13.622;2023-05-07T07:11:40;18.10;59.80
38325;DHT22;24126;52.672;13.622;2023-05-07T07:14:07;18.10;60.00
38325;DHT22;24126;52.672;13.622;2023-05-07T07:16:40;18.10;60.10
38325;DHT22;24126;52.672;13.622;2023-05-07T07:19:07;18.20;59.70
38325;DHT22;24126;52.672;13.622;2023-05-07T07:21:35;18.40;59.40
38325;DHT22;24126;52.672;13.622;2023-05-07T07:24:02;18.50;58.70
38325;DHT22;24126;52.672;13.622;2023-05-07T07:26:29;18.40;58.00
38325;DHT22;24126;52.672;13.622;2023-05-07T07:28:57;18.40;58.20
38325;DHT22;24126;52.672;13.622;2023-05-07T07:31:24;18.50;58.50
38325;DHT22;24126;52.672;13.622;2023-05-07T07:33:51;18.60;58.30
38325;DHT22;24126;52.672;13.622;2023-05-07T07:36:18;18.70;57.50
38325;DHT22;24126;52.672;13.622;2023-05-07T07:38:46;18.70;57.50
38325;DHT22;24126;52.672;13.622;2023-05-07T07:41:14;18.90;57.60
38325;DHT22;24126;52.672;13.622;2023-05-07T07:43:41;19.00;56.80
38325;DHT22;24126;52.672;13.622;2023-05-07T07:46:08;19.00;57.10
38325;DHT22;24126;52.672;13.622;2023-05-07T07:48:35;19.30;56.40
38325;DHT22;24126;52.672;13.622;2023-05-07T07:51:03;19.30;56.60
38325;DHT22;24126;52.672;13.622;2023-05-07T07:53:31;19.50;56.30
38325;DHT22;24126;52.672;13.622;2023-05-07T07:55:58;19.70;56.00
38325;DHT22;24126;52.672;13.622;2023-05-07T07:58:29;19.80;55.20
38325;DHT22;24126;52.672;13.622;2023-05-07T08:00:57;20.00;55.90
38325;DHT22;24126;52.672;13.622;2023-05-07T08:03:25;20.20;54.70
38325;DHT22;24126;52.672;13.622;2023-05-07T08:05:57;20.20;54.10
38325;DHT22;24126;52.672;13.622;2023-05-07T08:08:25;20.20;53.80
38325;DHT22;24126;52.672;13.622;2023-05-07T08:10:53;20.10;53.80
38325;DHT22;24126;52.672;13.622;2023-05-07T08:13:27;20.10;53.90
38325;DHT22;24126;52.672;13.622;2023-05-07T08:15:54;19.90;53.50
38325;DHT22;24126;52.672;13.622;2023-05-07T08:18:22;19.70;54.00
38325;DHT22;24126;52.672;13.622;2023-05-07T08:20:50;19.60;54.50
38325;DHT22;24126;52.672;13.622;2023-05-07T08:23:21;19.50;54.00
38325;DHT22;24126;52.672;13.622;2023-05-07T08:25:49;19.40;54.30
38325;DHT22;24126;52.672;13.622;2023-05-07T08:28:17;19.40;54.40
38325;DHT22;24126;52.672;13.622;2023-05-07T08:30:45;19.50;54.10
38325;DHT22;24126;52.672;13.622;2023-05-07T08:33:12;19.40;54.10
38325;DHT22;24126;52.672;13.622;2023-05-07T08:35:39;19.30;54.60
38325;DHT22;24126;52.672;13.622;2023-05-07T08:38:08;19.20;54.60
38325;DHT22;24126;52.672;13.622;2023-05-07T08:40:39;19.10;55.10
38325;DHT22;24126;52.672;13.622;2023-05-07T08:43:12;19.20;55.00
38325;DHT22;24126;52.672;13.622;2023-05-07T08:45:39;19.30;55.00
38325;DHT22;24126;52.672;13.622;2023-05-07T08:48:09;19.40;54.60
38325;DHT22;24126;52.672;13.622;2023-05-07T08:50:41;19.40;55.10
38325;DHT22;24126;52.672;13.622;2023-05-07T08:53:09;19.50;55.10
38325;DHT22;24126;52.672;13.622;2023-05-07T08:55:37;19.80;55.30
38325;DHT22;24126;52.672;13.622;2023-05-07T08:58:05;20.20;54.30
38325;DHT22;24126;52.672;13.622;2023-05-07T09:00:36;20.60;53.60
38325;DHT22;24126;52.672;13.622;2023-05-07T09:03:03;20.80;53.30
38325;DHT22;24126;52.672;13.622;2023-05-07T09:05:30;21.20;52.60
38325;DHT22;24126;52.672;13.622;2023-05-07T09:08:01;21.20;51.00
38325;DHT22;24126;52.672;13.622;2023-05-07T09:10:29;21.00;51.20
38325;DHT22;24126;52.672;13.622;2023-05-07T09:12:59;20.80;52.60
38325;DHT22;24126;52.672;13.622;2023-05-07T09:15:28;20.90;52.70
38325;DHT22;24126;52.672;13.622;2023-05-07T09:17:59;21.20;52.30
38325;DHT22;24126;52.672;13.622;2023-05-07T09:20:27;21.30;51.40
38325;DHT22;24126;52.672;13.622;2023-05-07T09:22:55;21.30;51.50
38325;DHT22;24126;52.672;13.622;2023-05-07T09:25:30;21.50;52.10
38325;DHT22;24126;52.672;13.622;2023-05-07T09:28:00;21.80;51.70
38325;DHT22;24126;52.672;13.622;2023-05-07T09:30:28;21.80;50.30
38325;DHT22;24126;52.672;13.622;2023-05-07T09:32:58;21.70;50.30
38325;DHT22;24126;52.672;13.622;2023-05-07T09:35:26;21.80;50.80
38325;DHT22;24126;52.672;13.622;2023-05-07T09:37:58;21.80;49.80
38325;DHT22;24126;52.672;13.622;2023-05-07T09:40:27;21.60;49.60
38325;DHT22;24126;52.672;13.622;2023-05-07T09:43:07;21.40;51.20
38325;DHT22;24126;52.672;13.622;2023-05-07T09:45:35;21.40;51.20
38325;DHT22;24126;52.672;13.622;2023-05-07T09:48:04;21.40;50.00
38325;DHT22;24126;52.672;13.622;2023-05-07T09:50:36;21.20;50.50
38325;DHT22;24126;52.672;13.622;2023-05-07T09:53:03;21.10;50.80
38325;DHT22;24126;52.672;13.622;2023-05-07T09:55:31;21.00;51.40
38325;DHT22;24126;52.672;13.622;2023-05-07T09:57:58;21.10;51.60
38325;DHT22;24126;52.672;13.622;2023-05-07T10:00:29;21.20;50.90
38325;DHT22;24126;52.672;13.622;2023-05-07T10:07:50;21.40;50.90
38325;DHT22;24126;52.672;13.622;2023-05-07T10:10:18;21.40;49.50
38325;DHT22;24126;52.672;13.622;2023-05-07T10:12:46;21.30;49.90
38325;DHT22;24126;52.672;13.622;2023-05-07T10:15:20;21.10;49.60
38325;DHT22;24126;52.672;13.622;2023-05-07T10:17:52;20.80;50.00
38325;DHT22;24126;52.672;13.622;2023-05-07T10:20:20;20.60;50.70
38325;DHT22;24126;52.672;13.622;2023-05-07T10:22:48;20.50;51.30
38325;DHT22;24126;52.672;13.622;2023-05-07T10:25:21;20.60;51.20
38325;DHT22;24126;52.672;13.622;2023-05-07T10:27:50;20.60;50.50
38325;DHT22;24126;52.672;13.622;2023-05-07T10:32:49;20.70;50.70
38325;DHT22;24126;52.672;13.622;2023-05-07T10:35:26;20.70;50.70
38325;DHT22;24126;52.672;13.622;2023-05-07T10:37:54;20.60;50.70
38325;DHT22;24126;52.672;13.622;2023-05-07T10:40:22;20.60;50.90
38325;DHT22;24126;52.672;13.622;2023-05-07T10:45:26;20.80;51.40
38325;DHT22;24126;52.672;13.622;2023-05-07T10:48:08;20.90;49.90
38325;DHT22;24126;52.672;13.622;2023-05-07T10:50:36;21.00;50.20
38325;DHT22;24126;52.672;13.622;2023-05-07T10:55:50;21.40;50.30
38325;DHT22;24126;52.672;13.622;2023-05-07T11:00:56;21.90;48.20
38325;DHT22;24126;52.672;13.622;2023-05-07T11:03:28;21.80;48.70
38325;DHT22;24126;52.672;13.622;2023-05-07T11:06:13;21.70;48.30
38325;DHT22;24126;52.672;13.622;2023-05-07T11:09:07;21.60;48.80
38325;DHT22;24126;52.672;13.622;2023-05-07T11:11:46;21.40;49.00
38325;DHT22;24126;52.672;13.622;2023-05-07T11:17:10;21.30;48.50
38325;DHT22;24126;52.672;13.622;2023-05-07T11:19:54;21.40;49.60
38325;DHT22;24126;52.672;13.622;2023-05-07T11:25:17;21.90;48.90
38325;DHT22;24126;52.672;13.622;2023-05-07T11:27:44;22.20;48.80
38325;DHT22;24126;52.672;13.622;2023-05-07T11:30:21;22.20;47.10
38325;DHT22;24126;52.672;13.622;2023-05-07T11:32:48;22.00;47.10
38325;DHT22;24126;52.672;13.622;2023-05-07T11:35:17;21.90;47.20
38325;DHT22;24126;52.672;13.622;2023-05-07T11:37:46;21.80;47.40
38325;DHT22;24126;52.672;13.622;2023-05-07T11:40:14;21.90;47.60
38325;DHT22;24126;52.672;13.622;2023-05-07T11:42:41;22.00;47.80
38325;DHT22;24126;52.672;13.622;2023-05-07T11:45:08;22.20;47.90
38325;DHT22;24126;52.672;13.622;2023-05-07T11:47:36;22.50;47.90
38325;DHT22;24126;52.672;13.622;2023-05-07T11:50:04;22.70;46.00
38325;DHT22;24126;52.672;13.622;2023-05-07T11:52:32;22.60;45.60
38325;DHT22;24126;52.672;13.622;2023-05-07T11:54:59;22.40;46.80
38325;DHT22;24126;52.672;13.622;2023-05-07T11:57:26;22.10;45.70
38325;DHT22;24126;52.672;13.622;2023-05-07T11:59:54;21.80;46.20
38325;DHT22;24126;52.672;13.622;2023-05-07T12:02:21;21.60;46.00
38325;DHT22;24126;52.672;13.622;2023-05-07T12:04:50;21.50;47.10
38325;DHT22;24126;52.672;13.622;2023-05-07T12:07:17;21.60;47.10
38325;DHT22;24126;52.672;13.622;2023-05-07T12:09:45;21.70;46.80
38325;DHT22;24126;52.672;13.622;2023-05-07T12:12:13;21.80;46.60
38325;DHT22;24126;52.672;13.622;2023-05-07T12:14:41;21.90;46.30
38325;DHT22;24126;52.672;13.622;2023-05-07T12:17:09;22.10;46.40
38325;DHT22;24126;52.672;13.622;2023-05-07T12:19:37;22.20;45.80
38325;DHT22;24126;52.672;13.622;2023-05-07T12:22:05;22.40;45.60
38325;DHT22;24126;52.672;13.622;2023-05-07T12:24:42;22.40;46.10
38325;DHT22;24126;52.672;13.622;2023-05-07T12:27:09;22.40;45.50
38325;DHT22;24126;52.672;13.622;2023-05-07T12:29:36;22.30;45.60
38325;DHT22;24126;52.672;13.622;2023-05-07T12:32:05;22.20;45.90
38325;DHT22;24126;52.672;13.622;2023-05-07T12:34:35;22.20;46.00
38325;DHT22;24126;52.672;13.622;2023-05-07T12:37:02;22.10;45.60
38325;DHT22;24126;52.672;13.622;2023-05-07T12:39:30;22.10;45.30
38325;DHT22;24126;52.672;13.622;2023-05-07T12:41:58;21.80;45.10
38325;DHT22;24126;52.672;13.622;2023-05-07T12:44:29;21.60;45.20
38325;DHT22;24126;52.672;13.622;2023-05-07T12:46:57;21.30;45.60
38325;DHT22;24126;52.672;13.622;2023-05-07T12:49:26;21.30;46.30
38325;DHT22;24126;52.672;13.622;2023-05-07T12:51:53;21.40;46.00
38325;DHT22;24126;52.672;13.622;2023-05-07T12:54:30;21.60;46.50
38325;DHT22;24126;52.672;13.622;2023-05-07T12:57:01;21.70;45.20
38325;DHT22;24126;52.672;13.622;2023-05-07T12:59:32;21.70;46.30
38325;DHT22;24126;52.672;13.622;2023-05-07T13:01:59;21.90;46.50
38325;DHT22;24126;52.672;13.622;2023-05-07T13:04:26;22.10;45.70
38325;DHT22;24126;52.672;13.622;2023-05-07T13:06:53;22.30;45.00
38325;DHT22;24126;52.672;13.622;2023-05-07T13:09:21;22.40;44.80
38325;DHT22;24126;52.672;13.622;2023-05-07T13:11:48;22.50;44.70
38325;DHT22;24126;52.672;13.622;2023-05-07T13:14:15;22.50;44.00
38325;DHT22;24126;52.672;13.622;2023-05-07T13:16:42;22.70;43.70
38325;DHT22;24126;52.672;13.622;2023-05-07T13:19:09;22.70;44.40
38325;DHT22;24126;52.672;13.622;2023-05-07T13:21:36;22.70;43.50
38325;DHT22;24126;52.672;13.622;2023-05-07T13:24:03;22.70;43.40
38325;DHT22;24126;52.672;13.622;2023-05-07T13:26:31;22.50;43.90
38325;DHT22;24126;52.672;13.622;2023-05-07T13:28:58;22.30;43.70
38325;DHT22;24126;52.672;13.622;2023-05-07T13:31:25;22.10;44.10
38325;DHT22;24126;52.672;13.622;2023-05-07T13:33:52;21.80;44.40
38325;DHT22;24126;52.672;13.622;2023-05-07T13:36:22;21.50;45.20
38325;DHT22;24126;52.672;13.622;2023-05-07T13:38:49;21.40;45.10
38325;DHT22;24126;52.672;13.622;2023-05-07T13:41:17;21.30;45.00
38325;DHT22;24126;52.672;13.622;2023-05-07T13:43:44;21.30;45.30
38325;DHT22;24126;52.672;13.622;2023-05-07T13:46:11;21.10;45.40
38325;DHT22;24126;52.672;13.622;2023-05-07T13:48:38;21.00;46.00
38325;DHT22;24126;52.672;13.622;2023-05-07T13:51:05;21.00;46.10
38325;DHT22;24126;52.672;13.622;2023-05-07T13:53:32;20.90;46.30
38325;DHT22;24126;52.672;13.622;2023-05-07T13:55:59;20.90;46.10
38325;DHT22;24126;52.672;13.622;2023-05-07T13:58:26;20.90;46.00
38325;DHT22;24126;52.672;13.622;2023-05-07T14:00:53;20.80;46.00
38325;DHT22;24126;52.672;13.622;2023-05-07T14:03:20;20.80;45.90
38325;DHT22;24126;52.672;13.622;2023-05-07T14:05:47;20.70;45.90
38325;DHT22;24126;52.672;13.622;2023-05-07T14:08:14;20.80;47.10
38325;DHT22;24126;52.672;13.622;2023-05-07T14:10:43;21.00;47.20
38325;DHT22;24126;52.672;13.622;2023-05-07T14:13:10;21.30;46.40
38325;DHT22;24126;52.672;13.622;2023-05-07T14:15:37;21.60;46.20
38325;DHT22;24126;52.672;13.622;2023-05-07T14:18:04;21.80;45.60
38325;DHT22;24126;52.672;13.622;2023-05-07T14:20:31;21.90;44.80
38325;DHT22;24126;52.672;13.622;2023-05-07T14:22:58;21.90;45.00
38325;DHT22;24126;52.672;13.622;2023-05-07T14:25:25;21.90;44.80
38325;DHT22;24126;52.672;13.622;2023-05-07T14:27:52;21.90;44.80
38325;DHT22;24126;52.672;13.622;2023-05-07T14:30:19;21.90;44.50
38325;DHT22;24126;52.672;13.622;2023-05-07T14:32:48;21.80;44.20
38325;DHT22;24126;52.672;13.622;2023-05-07T14:35:15;21.60;44.60
38325;DHT22;24126;52.672;13.622;2023-05-07T14:37:43;21.40;44.90
38325;DHT22;24126;52.672;13.622;2023-05-07T14:40:10;21.30;45.00
38325;DHT22;24126;52.672;13.622;2023-05-07T14:42:37;21.30;45.10
38325;DHT22;24126;52.672;13.622;2023-05-07T14:45:04;21.30;44.80
38325;DHT22;24126;52.672;13.622;2023-05-07T14:47:32;21.20;45.80
38325;DHT22;24126;52.672;13.622;2023-05-07T14:49:59;21.20;45.30
38325;DHT22;24126;52.672;13.622;2023-05-07T14:52:26;21.20;45.00
38325;DHT22;24126;52.672;13.622;2023-05-07T14:54:53;21.10;45.10
38325;DHT22;24126;52.672;13.622;2023-05-07T14:57:20;21.10;45.70
38325;DHT22;24126;52.672;13.622;2023-05-07T14:59:47;21.10;45.40
38325;DHT22;24126;52.672;13.622;2023-05-07T15:02:14;21.10;44.60
38325;DHT22;24126;52.672;13.622;2023-05-07T15:04:42;21.20;45.30
38325;DHT22;24126;52.672;13.622;2023-05-07T15:07:12;21.30;44.40
38325;DHT22;24126;52.672;13.622;2023-05-07T15:09:43;21.40;44.30
38325;DHT22;24126;52.672;13.622;2023-05-07T15:12:11;21.60;45.00
38325;DHT22;24126;52.672;13.622;2023-05-07T15:14:38;21.60;44.90
38325;DHT22;24126;52.672;13.622;2023-05-07T15:17:05;21.70;44.70
38325;DHT22;24126;52.672;13.622;2023-05-07T15:19:33;21.50;44.50
38325;DHT22;24126;52.672;13.622;2023-05-07T15:22:00;21.40;44.70
38325;DHT22;24126;52.672;13.622;2023-05-07T15:24:29;21.20;45.00
38325;DHT22;24126;52.672;13.622;2023-05-07T15:26:56;21.10;45.50
38325;DHT22;24126;52.672;13.622;2023-05-07T15:29:24;21.00;45.50
38325;DHT22;24126;52.672;13.622;2023-05-07T15:31:51;20.80;45.50
38325;DHT22;24126;52.672;13.622;2023-05-07T15:34:18;20.70;45.60
38325;DHT22;24126;52.672;13.622;2023-05-07T15:36:45;20.70;46.20
38325;DHT22;24126;52.672;13.622;2023-05-07T15:39:12;20.80;46.20
38325;DHT22;24126;52.672;13.622;2023-05-07T15:41:39;20.80;46.10
38325;DHT22;24126;52.672;13.622;2023-05-07T15:44:06;20.80;46.00